イヌヴィック の空港の天気 - METARとTAF

イヌヴィック空港 ( CYEV / YEV ) - カナダ ノースウエスト準州イヌヴィック
飛行場実況気象(Metar)
観測時間02/17 16:00 MST (02/17 23:00 UTC)
風向・風速東 2m/s
視程10km以上
天気現象
少しの雲 雲底高度 7320m
気温-10℃
湿度57%
気圧1023.5hPa
METARCYEV 172300Z 08004KT 070V130 15SM FEW240 M10/M17 A3019 RMK CI1 SLP235
過去の天気等 Google飛行場航空写真 Wunderground天気予報

過去48時間のMETAR

飛行場予報(TAF)
発表時間: 2/17 11:38 MST (2/17 18:38 UTC)
予報対象時間: 17日12時 MST ~ 18日0時 MST
風向・風速不定 2m/s
視程10km以上
少しの雲 雲底高度 2130m
TAF CYEV 171838Z 1719/1807 VRB03KT P6SM FEW070 RMK NXT FCST BY 180100Z